Time;durP1;ratioP1;P1;durP2;ratioP2;P2;SDS_P1;SDS_P2;PMS_P1;PMS_P2;Temp;Humidity;BMP_temperature;BMP_pressure;BME280_temperature;BME280_humidity;BME280_pressure;Samples;Min_cycle;Max_cycle;Signal;HPM_P1;HPM_P2
2023/11/19 00:01:28;;;;;;;8.52;2.95;;;;;;;3.72;81.88;100506.63;6185993;28;20086;-73
2023/11/19 00:04:30;;;;;;;6.47;2.78;;;;;;;3.61;81.60;100501.75;6183304;28;20042;-73
2023/11/19 00:07:31;;;;;;;5.85;2.85;;;;;;;3.51;82.24;100489.97;6192153;28;20077;-73
2023/11/19 00:10:32;;;;;;;5.70;2.63;;;;;;;3.57;81.67;100482.06;6184484;28;20050;-72
2023/11/19 00:13:33;;;;;;;6.63;3.15;;;;;;;3.55;82.07;100489.00;6183028;28;20180;-72
2023/11/19 00:16:34;;;;;;;5.45;2.50;;;;;;;3.51;82.20;100477.06;6187542;28;20816;-76
2023/11/19 00:19:37;;;;;;;5.47;3.13;;;;;;;3.63;81.63;100487.06;6186205;28;20094;-75
2023/11/19 00:22:38;;;;;;;6.05;3.20;;;;;;;3.53;82.09;100495.94;6192717;28;20051;-76
2023/11/19 00:25:39;;;;;;;6.35;3.03;;;;;;;3.56;81.16;100487.25;6190301;28;20481;-76
2023/11/19 00:28:40;;;;;;;3.47;2.22;;;;;;;3.35;81.88;100488.63;6185637;28;20153;-75
2023/11/19 00:31:41;;;;;;;4.75;3.17;;;;;;;3.49;81.45;100486.56;6181633;28;20133;-76
2023/11/19 00:34:47;;;;;;;5.28;3.30;;;;;;;3.65;81.88;100492.19;6182869;28;20054;-75
2023/11/19 00:37:49;;;;;;;6.13;3.40;;;;;;;3.55;82.23;100493.31;6185970;28;20553;-75
2023/11/19 00:40:50;;;;;;;4.30;2.85;;;;;;;3.51;82.06;100489.97;6187780;28;20042;-73
2023/11/19 00:43:53;;;;;;;5.65;2.47;;;;;;;3.18;81.77;100495.03;6186534;28;20101;-72
2023/11/19 00:46:57;;;;;;;4.25;2.58;;;;;;;3.36;82.12;100488.59;6188401;28;20081;-75
2023/11/19 00:49:58;;;;;;;6.88;2.97;;;;;;;3.33;82.30;100485.25;6176652;28;20077;-75
2023/11/19 00:52:59;;;;;;;5.45;2.97;;;;;;;3.26;82.64;100483.72;6179841;28;20404;-75
2023/11/19 00:56:00;;;;;;;5.40;3.25;;;;;;;3.40;82.65;100487.66;6179953;28;20051;-75
2023/11/19 00:59:03;;;;;;;3.65;2.33;;;;;;;3.47;82.54;100501.25;6157935;28;20064;-75
2023/11/19 01:02:07;;;;;;;6.90;3.28;;;;;;;3.35;81.70;100492.06;6199155;28;20061;-75
2023/11/19 01:05:08;;;;;;;5.15;3.40;;;;;;;3.46;82.52;100489.25;6192005;28;20050;-73
2023/11/19 01:08:10;;;;;;;5.22;2.97;;;;;;;3.46;81.71;100496.09;6191264;28;20058;-73
2023/11/19 01:11:21;;;;;;;5.30;2.70;;;;;;;3.19;83.14;100470.09;6187028;28;20497;-73
2023/11/19 01:14:22;;;;;;;6.00;3.50;;;;;;;3.42;81.98;100466.97;6180480;28;20050;-75
2023/11/19 01:17:22;;;;;;;5.85;3.13;;;;;;;3.27;81.74;100464.75;6192026;28;20065;-75
2023/11/19 01:20:24;;;;;;;4.10;2.88;;;;;;;3.39;81.56;100456.72;6181777;28;20050;-73
2023/11/19 01:23:25;;;;;;;4.72;3.13;;;;;;;3.35;80.97;100462.84;6182782;28;20052;-73
2023/11/19 01:26:28;;;;;;;5.55;3.25;;;;;;;3.22;81.36;100452.00;6180973;28;20497;-72
2023/11/19 01:29:29;;;;;;;5.75;3.25;;;;;;;3.25;81.99;100467.38;6188433;28;20073;-73
2023/11/19 01:32:30;;;;;;;4.82;2.95;;;;;;;3.21;81.79;100470.91;6183934;28;20766;-75
2023/11/19 01:35:31;;;;;;;4.05;2.70;;;;;;;3.29;81.30;100447.50;6181506;28;20811;-75
2023/11/19 01:38:32;;;;;;;7.78;3.17;;;;;;;3.28;80.80;100456.16;6174947;28;20052;-73
2023/11/19 01:41:36;;;;;;;5.70;3.38;;;;;;;3.46;80.67;100471.19;6187664;28;20054;-72
2023/11/19 01:44:38;;;;;;;4.82;2.63;;;;;;;3.54;80.21;100460.66;6184391;28;20085;-75
2023/11/19 01:47:40;;;;;;;6.40;3.13;;;;;;;3.42;80.53;100449.75;6185618;28;20146;-75
2023/11/19 01:50:41;;;;;;;5.05;3.08;;;;;;;3.46;80.05;100454.84;6188128;28;20473;-75
2023/11/19 01:53:45;;;;;;;4.68;2.83;;;;;;;3.42;80.14;100465.25;6184356;28;20086;-76
2023/11/19 01:56:47;;;;;;;4.75;3.00;;;;;;;3.50;80.81;100465.06;6181687;28;20046;-72
2023/11/19 01:59:50;;;;;;;5.03;2.88;;;;;;;3.54;79.80;100464.09;6185382;28;20060;-75
2023/11/19 02:02:52;;;;;;;6.38;3.25;;;;;;;3.48;80.19;100456.50;6166055;28;20051;-75
2023/11/19 02:05:55;;;;;;;5.60;3.00;;;;;;;3.33;81.12;100451.72;6166571;28;20062;-75
2023/11/19 02:08:56;;;;;;;4.18;2.78;;;;;;;3.47;80.94;100465.13;6166757;28;20074;-75
2023/11/19 02:11:57;;;;;;;3.90;2.60;;;;;;;3.42;80.96;100461.81;6174727;28;20053;-75
2023/11/19 02:14:58;;;;;;;6.00;3.20;;;;;;;3.15;81.07;100456.44;6163703;28;20053;-75
2023/11/19 02:18:23;;;;;;;8.32;3.67;;;;;;;3.31;81.33;100451.75;6166310;28;20053;-73
2023/11/19 02:21:24;;;;;;;3.45;2.45;;;;;;;3.23;81.45;100439.06;6157616;28;20051;-75
2023/11/19 02:24:27;;;;;;;4.68;3.30;;;;;;;3.28;82.43;100438.94;6163853;28;20047;-75
2023/11/19 02:27:57;;;;;;;5.95;2.78;;;;;;;2.96;82.95;100443.13;6162141;28;20088;-72
2023/11/19 02:31:01;;;;;;;4.07;2.40;;;;;;;3.00;82.96;100447.31;6164392;28;20154;-73
2023/11/19 02:34:02;;;;;;;5.50;3.17;;;;;;;2.89;83.09;100448.47;6160948;28;20413;-72
2023/11/19 02:37:04;;;;;;;6.97;3.67;;;;;;;2.83;83.40;100431.41;6158519;28;20054;-75
2023/11/19 02:40:08;;;;;;;6.20;2.97;;;;;;;2.91;83.34;100441.56;6163683;28;20417;-75
2023/11/19 02:43:09;;;;;;;5.75;2.85;;;;;;;2.93;83.78;100442.38;6160568;28;20141;-73
2023/11/19 02:46:11;;;;;;;5.57;3.08;;;;;;;2.90;83.33;100439.84;6157710;28;20062;-76
2023/11/19 02:49:15;;;;;;;5.80;3.17;;;;;;;2.93;83.93;100435.47;6177367;28;20082;-76
2023/11/19 02:52:18;;;;;;;5.53;3.20;;;;;;;2.99;83.04;100437.91;6165323;28;20514;-76
2023/11/19 02:55:23;;;;;;;6.75;3.72;;;;;;;3.03;83.44;100446.44;6163387;28;20134;-75
2023/11/19 02:58:24;;;;;;;7.82;3.45;;;;;;;2.90;83.50;100440.69;6164396;28;20062;-73
2023/11/19 03:01:33;;;;;;;5.47;3.28;;;;;;;2.78;84.28;100440.97;6162922;28;20076;-73
2023/11/19 03:04:34;;;;;;;5.05;3.22;;;;;;;2.69;84.47;100439.44;6163045;28;20051;-75
2023/11/19 03:07:36;;;;;;;6.72;3.33;;;;;;;2.44;85.48;100449.44;6158790;28;20133;-75
2023/11/19 03:10:37;;;;;;;6.27;3.30;;;;;;;2.56;85.83;100445.78;6163229;28;20062;-75
2023/11/19 03:13:40;;;;;;;6.15;3.40;;;;;;;2.54;85.83;100426.94;6161657;28;20051;-73
2023/11/19 03:16:41;;;;;;;6.13;4.10;;;;;;;2.69;85.69;100420.56;6178983;28;20050;-73
2023/11/19 03:19:44;;;;;;;6.78;3.65;;;;;;;2.68;85.30;100427.47;6174863;28;20047;-72
2023/11/19 03:22:45;;;;;;;5.80;3.53;;;;;;;2.68;85.37;100426.59;6156175;28;20498;-73
2023/11/19 03:25:48;;;;;;;7.10;3.83;;;;;;;2.65;85.25;100427.53;6162321;28;20058;-75
2023/11/19 03:28:49;;;;;;;6.35;3.28;;;;;;;2.66;85.18;100423.22;6167313;28;20485;-73
2023/11/19 03:31:50;;;;;;;5.28;3.58;;;;;;;2.60;84.67;100396.72;6166514;28;20055;-74
2023/11/19 03:34:53;;;;;;;9.35;3.65;;;;;;;2.74;85.09;100395.53;6167286;28;20490;-76
2023/11/19 03:37:54;;;;;;;5.72;3.42;;;;;;;2.70;84.86;100402.50;6164484;28;20054;-75
2023/11/19 03:40:57;;;;;;;4.85;3.30;;;;;;;2.70;84.32;100404.22;6175030;28;20062;-76
2023/11/19 03:43:58;;;;;;;10.55;3.28;;;;;;;2.71;84.41;100411.91;6165403;28;20065;-75
2023/11/19 03:46:59;;;;;;;10.48;5.20;;;;;;;2.55;84.34;100408.88;6171015;28;20133;-72
2023/11/19 03:50:02;;;;;;;6.65;3.85;;;;;;;2.51;85.00;100396.94;6178128;28;20681;-75
2023/11/19 03:53:04;;;;;;;8.13;4.10;;;;;;;2.49;84.90;100397.81;6176555;28;20090;-75
2023/11/19 03:56:06;;;;;;;5.30;3.47;;;;;;;2.40;85.00;100404.88;6174049;28;20058;-72
2023/11/19 03:59:10;;;;;;;6.72;3.50;;;;;;;2.42;85.16;100403.13;6155344;28;20429;-73
2023/11/19 04:02:11;;;;;;;5.60;3.30;;;;;;;2.44;85.27;100394.53;6172926;28;20486;-75
2023/11/19 04:05:12;;;;;;;6.50;3.30;;;;;;;2.39;85.22;100387.75;6163440;28;20050;-72
2023/11/19 04:08:13;;;;;;;6.22;3.75;;;;;;;2.39;85.44;100384.34;6174447;28;20460;-75
2023/11/19 04:11:13;;;;;;;7.25;4.47;;;;;;;2.37;85.36;100381.78;6162453;28;20067;-76
2023/11/19 04:14:14;;;;;;;7.22;3.85;;;;;;;2.39;85.64;100368.88;6171056;28;20054;-75
2023/11/19 04:17:15;;;;;;;4.50;3.42;;;;;;;2.34;85.71;100379.25;6171730;28;20130;-73
2023/11/19 04:20:16;;;;;;;5.88;3.72;;;;;;;2.29;85.60;100380.25;6153888;29;20494;-73
2023/11/19 04:23:20;;;;;;;6.20;3.60;;;;;;;2.27;85.95;100377.72;6153512;29;20055;-73
2023/11/19 04:26:21;;;;;;;5.18;3.03;;;;;;;2.28;85.85;100363.94;6153712;29;20134;-72
2023/11/19 04:29:22;;;;;;;6.47;3.38;;;;;;;2.16;86.49;100375.38;6168327;28;20055;-75
2023/11/19 04:32:23;;;;;;;8.00;3.90;;;;;;;2.20;86.30;100376.13;6153393;28;20058;-75
2023/11/19 04:35:26;;;;;;;7.68;4.20;;;;;;;2.09;86.66;100373.78;6153358;28;20059;-75
2023/11/19 04:38:27;;;;;;;5.03;3.22;;;;;;;2.08;86.56;100379.84;6171995;28;20050;-75
2023/11/19 04:41:28;;;;;;;6.40;3.38;;;;;;;2.04;86.84;100375.63;6201443;28;20093;-72
2023/11/19 04:44:31;;;;;;;7.65;4.10;;;;;;;2.03;87.23;100373.09;6201159;28;20133;-75
2023/11/19 04:47:34;;;;;;;8.10;4.15;;;;;;;2.00;87.42;100374.00;6200942;28;20061;-75
2023/11/19 04:50:35;;;;;;;6.43;3.83;;;;;;;1.90;87.73;100369.91;6201063;28;20133;-73
2023/11/19 04:53:35;;;;;;;6.15;3.53;;;;;;;1.98;87.63;100381.75;6199156;28;20088;-73
2023/11/19 04:56:37;;;;;;;6.00;3.53;;;;;;;1.96;87.25;100385.25;6200775;28;20386;-73
2023/11/19 04:59:38;;;;;;;6.07;3.95;;;;;;;1.94;87.48;100381.84;6200993;28;20057;-72
2023/11/19 05:02:39;;;;;;;8.98;4.60;;;;;;;2.00;87.68;100382.56;6199475;28;20457;-73
2023/11/19 05:05:40;;;;;;;6.53;3.58;;;;;;;1.93;87.82;100380.13;6200651;28;20068;-71
2023/11/19 05:08:41;;;;;;;8.10;4.32;;;;;;;1.98;87.96;100378.34;6199413;28;20474;-75
2023/11/19 05:11:43;;;;;;;5.63;3.47;;;;;;;1.95;87.87;100362.94;6199110;28;20050;-75
2023/11/19 05:14:49;;;;;;;5.90;3.60;;;;;;;2.04;87.88;100341.28;6199499;28;20082;-75
2023/11/19 05:17:50;;;;;;;10.35;5.93;;;;;;;2.04;88.20;100337.03;6200478;28;20477;-75
2023/11/19 05:20:51;;;;;;;11.23;6.30;;;;;;;2.05;88.39;100338.69;6196132;28;20059;-75
2023/11/19 05:23:54;;;;;;;11.63;6.05;;;;;;;1.95;87.93;100353.47;6200024;28;20054;-75
2023/11/19 05:26:56;;;;;;;11.65;5.80;;;;;;;1.86;88.34;100358.00;6200511;28;20189;-72
2023/11/19 05:29:57;;;;;;;9.55;4.63;;;;;;;1.76;88.69;100354.75;6199073;28;20078;-72
2023/11/19 05:32:57;;;;;;;8.73;4.47;;;;;;;1.68;89.14;100360.03;6198624;28;20060;-75
2023/11/19 05:35:58;;;;;;;6.50;3.80;;;;;;;1.74;88.90;100361.66;6198816;28;20058;-74
2023/11/19 05:38:59;;;;;;;7.72;4.65;;;;;;;1.71;89.11;100346.25;6198766;28;20100;-75
2023/11/19 05:42:00;;;;;;;7.05;4.07;;;;;;;1.77;89.36;100348.72;6197889;28;20493;-75
2023/11/19 05:45:03;;;;;;;8.55;4.18;;;;;;;1.75;89.33;100346.19;6199199;28;20508;-75
2023/11/19 05:48:04;;;;;;;7.60;4.18;;;;;;;1.75;90.03;100353.03;6199573;28;20050;-75
2023/11/19 05:51:07;;;;;;;5.07;3.53;;;;;;;1.79;90.57;100359.81;6197830;28;20050;-73
2023/11/19 05:54:09;;;;;;;11.98;4.40;;;;;;;1.83;90.23;100364.03;6198980;28;20455;-72
2023/11/19 05:57:10;;;;;;;9.35;5.68;;;;;;;1.88;90.28;100376.81;6197774;28;20049;-75
2023/11/19 06:00:12;;;;;;;14.75;4.68;;;;;;;1.88;90.57;100356.22;6199058;28;20054;-76
2023/11/19 06:03:13;;;;;;;9.80;5.15;;;;;;;1.95;90.45;100355.22;6198706;28;20053;-76
2023/11/19 06:06:14;;;;;;;8.18;4.47;;;;;;;1.99;90.79;100354.28;6197739;28;20413;-72
2023/11/19 06:09:15;;;;;;;5.68;3.75;;;;;;;2.03;90.87;100347.34;6197458;28;20112;-75
2023/11/19 06:12:18;;;;;;;8.63;3.85;;;;;;;2.04;90.83;100349.91;6197094;28;20505;-75
2023/11/19 06:15:19;;;;;;;8.50;5.35;;;;;;;2.05;90.68;100363.59;6197621;28;20057;-72
2023/11/19 06:18:20;;;;;;;10.40;6.57;;;;;;;2.20;89.94;100365.84;6198333;28;20042;-75
2023/11/19 06:21:21;;;;;;;9.48;6.05;;;;;;;2.16;89.63;100369.34;6198767;28;20058;-75
2023/11/19 06:24:22;;;;;;;8.95;5.32;;;;;;;2.27;89.91;100374.28;6198279;28;20069;-76
2023/11/19 06:27:23;;;;;;;12.88;5.13;;;;;;;2.32;89.89;100377.59;6198317;28;20569;-75
2023/11/19 06:30:24;;;;;;;9.50;5.30;;;;;;;2.44;89.09;100373.91;6197105;28;20046;-72
2023/11/19 06:33:26;;;;;;;11.38;6.25;;;;;;;2.48;88.81;100373.81;6183622;28;20058;-76
2023/11/19 06:36:30;;;;;;;10.20;5.57;;;;;;;2.48;88.51;100373.81;6172827;28;20082;-76
2023/11/19 06:39:31;;;;;;;11.95;6.80;;;;;;;2.51;88.42;100375.47;6172469;28;20446;-72
2023/11/19 06:42:32;;;;;;;14.75;6.65;;;;;;;2.67;87.92;100392.25;6188737;28;20050;-72
2023/11/19 06:45:33;;;;;;;8.93;5.25;;;;;;;2.71;87.97;100375.00;6174936;28;20154;-72
2023/11/19 06:48:34;;;;;;;9.35;5.00;;;;;;;2.77;88.10;100375.69;6156904;28;20498;-73
2023/11/19 06:51:35;;;;;;;8.90;5.53;;;;;;;2.85;88.01;100385.84;6189697;28;20051;-76
2023/11/19 06:54:38;;;;;;;10.07;5.30;;;;;;;2.91;87.73;100383.13;6164873;28;20102;-72
2023/11/19 06:57:39;;;;;;;12.95;5.15;;;;;;;2.95;86.73;100383.91;6157466;28;20066;-72
2023/11/19 07:00:41;;;;;;;11.48;6.05;;;;;;;3.09;86.71;100396.44;6158515;28;20057;-72
2023/11/19 07:03:42;;;;;;;10.77;5.65;;;;;;;3.08;87.09;100387.00;6183533;28;20055;-75
2023/11/19 07:06:44;;;;;;;7.53;4.65;;;;;;;3.17;86.67;100403.09;6164780;28;20495;-73
2023/11/19 07:09:45;;;;;;;11.13;6.00;;;;;;;3.27;86.63;100402.88;6159378;28;20664;-72
2023/11/19 07:12:50;;;;;;;13.18;7.60;;;;;;;3.26;86.58;100407.19;6174973;28;20061;-72
2023/11/19 07:15:51;;;;;;;12.20;7.43;;;;;;;3.40;86.44;100415.41;6161269;28;20055;-75
2023/11/19 07:18:52;;;;;;;12.35;6.45;;;;;;;3.53;86.04;100409.94;6190489;28;20050;-75
2023/11/19 07:21:54;;;;;;;14.23;6.32;;;;;;;3.55;85.15;100400.44;6193412;28;20402;-75
2023/11/19 07:24:57;;;;;;;14.95;5.85;;;;;;;3.61;84.44;100398.53;6178021;28;20055;-75
2023/11/19 07:27:58;;;;;;;13.50;5.95;;;;;;;3.69;84.51;100390.59;6197085;28;20053;-72
2023/11/19 07:30:59;;;;;;;9.07;4.20;;;;;;;3.79;84.30;100375.69;6200521;28;20129;-76
2023/11/19 07:34:00;;;;;;;8.65;5.25;;;;;;;3.91;84.21;100365.03;6200083;28;20085;-76
2023/11/19 07:37:02;;;;;;;8.20;5.05;;;;;;;4.14;83.83;100382.44;6200932;28;20050;-72
2023/11/19 07:40:03;;;;;;;12.88;6.13;;;;;;;4.05;82.64;100390.44;6202228;28;20050;-75
2023/11/19 07:43:04;;;;;;;9.15;4.63;;;;;;;3.90;82.57;100383.97;6201913;28;20141;-75
2023/11/19 07:46:10;;;;;;;8.07;5.18;;;;;;;4.01;81.82;100381.06;6198436;28;20051;-75
2023/11/19 07:49:14;;;;;;;9.82;4.82;;;;;;;4.11;80.88;100374.75;6200560;28;20054;-76
2023/11/19 07:52:15;;;;;;;10.15;6.32;;;;;;;4.23;81.01;100365.81;6200423;28;20420;-75
2023/11/19 07:55:15;;;;;;;8.90;4.70;;;;;;;4.19;81.61;100362.47;6199968;28;20050;-75
2023/11/19 07:58:16;;;;;;;9.43;5.43;;;;;;;4.20;81.24;100371.06;6201079;28;20137;-72
2023/11/19 08:01:17;;;;;;;8.48;4.78;;;;;;;4.15;81.09;100368.63;6183268;28;20096;-73
2023/11/19 08:04:19;;;;;;;8.32;4.47;;;;;;;4.42;80.35;100377.28;6162863;28;20047;-73
2023/11/19 08:07:19;;;;;;;8.82;4.93;;;;;;;4.65;80.49;100380.88;6177390;28;20043;-72
2023/11/19 08:10:21;;;;;;;9.07;5.03;;;;;;;4.82;78.66;100359.69;6177250;28;20130;-76
2023/11/19 08:13:24;;;;;;;8.68;4.75;;;;;;;4.71;76.78;100362.59;6175241;28;20051;-75
2023/11/19 08:16:27;;;;;;;9.50;4.93;;;;;;;4.63;76.69;100346.47;6177013;28;20051;-72
2023/11/19 08:19:28;;;;;;;8.60;4.22;;;;;;;4.62;76.55;100352.56;6177336;28;20047;-75
2023/11/19 08:22:29;;;;;;;6.32;3.85;;;;;;;4.79;77.70;100349.44;6177049;28;20133;-75
2023/11/19 08:25:30;;;;;;;6.80;3.70;;;;;;;4.76;78.26;100349.53;6167019;28;20051;-75
2023/11/19 08:28:31;;;;;;;6.95;3.53;;;;;;;4.74;77.70;100336.66;6151765;28;20136;-75
2023/11/19 08:31:32;;;;;;;6.55;4.03;;;;;;;4.85;77.28;100331.13;6194139;28;20074;-75
2023/11/19 08:34:33;;;;;;;6.97;3.67;;;;;;;4.95;76.56;100332.50;6199686;28;20129;-75
2023/11/19 08:37:36;;;;;;;7.47;4.47;;;;;;;4.94;75.35;100310.16;6200715;28;20104;-75
2023/11/19 08:40:39;;;;;;;7.55;4.70;;;;;;;4.93;75.21;100321.38;6175393;28;20076;-75
2023/11/19 08:43:41;;;;;;;8.05;3.72;;;;;;;4.92;75.86;100329.19;6197300;28;20050;-72
2023/11/19 08:46:51;;;;;;;7.38;4.18;;;;;;;4.85;75.79;100315.63;6199051;28;20062;-72
2023/11/19 08:49:54;;;;;;;5.80;3.60;;;;;;;5.01;75.34;100328.88;6194402;28;20524;-72
2023/11/19 08:52:56;;;;;;;7.57;3.90;;;;;;;5.17;74.87;100339.56;6164312;28;20073;-75
2023/11/19 08:55:56;;;;;;;6.78;3.88;;;;;;;5.14;72.92;100345.66;6176002;28;20055;-73
2023/11/19 08:58:57;;;;;;;6.65;3.92;;;;;;;5.31;73.86;100342.50;6176309;28;20090;-72
2023/11/19 09:01:58;;;;;;;6.03;4.05;;;;;;;5.42;73.89;100335.22;6182947;28;20053;-75
2023/11/19 09:04:59;;;;;;;6.97;3.63;;;;;;;5.50;74.33;100318.56;6163183;28;20061;-75
2023/11/19 09:08:00;;;;;;;8.15;4.65;;;;;;;5.34;72.50;100319.13;6191362;28;20054;-75
2023/11/19 09:11:07;;;;;;;10.35;4.97;;;;;;;5.59;71.51;100306.16;6158037;28;20109;-75
2023/11/19 09:14:11;;;;;;;8.60;3.90;;;;;;;5.74;71.22;100324.59;6160669;28;20051;-73
2023/11/19 09:17:12;;;;;;;6.38;3.80;;;;;;;5.74;71.86;100296.97;6162575;28;20452;-72
2023/11/19 09:20:15;;;;;;;8.55;4.25;;;;;;;5.76;71.11;100296.91;6172353;28;20043;-76
2023/11/19 09:23:15;;;;;;;7.10;3.88;;;;;;;5.74;72.48;100286.59;6157303;28;20046;-75
2023/11/19 09:26:19;;;;;;;9.70;4.72;;;;;;;5.84;73.13;100285.34;6154623;28;20054;-75
2023/11/19 09:29:21;;;;;;;7.38;3.53;;;;;;;5.77;72.85;100268.38;6157158;28;20051;-75
2023/11/19 09:32:22;;;;;;;7.68;4.18;;;;;;;5.81;72.55;100267.38;6159910;28;20147;-75
2023/11/19 09:35:23;;;;;;;10.00;5.43;;;;;;;5.59;73.16;100269.91;6154372;28;20406;-76
2023/11/19 09:38:24;;;;;;;6.72;3.65;;;;;;;5.61;73.12;100290.56;6157151;28;20482;-76
2023/11/19 09:41:26;;;;;;;6.43;3.72;;;;;;;5.64;73.40;100293.88;6156060;28;20486;-75
2023/11/19 09:44:28;;;;;;;6.78;4.00;;;;;;;5.53;73.69;100282.22;6168796;28;20058;-75
2023/11/19 09:47:29;;;;;;;8.57;4.45;;;;;;;5.57;73.64;100270.88;6161403;28;20051;-72
2023/11/19 09:50:31;;;;;;;9.50;5.43;;;;;;;5.55;73.67;100245.03;6156550;28;20073;-73
2023/11/19 09:53:33;;;;;;;12.27;5.45;;;;;;;5.37;73.66;100235.34;6173181;28;20046;-73
2023/11/19 09:56:37;;;;;;;8.10;4.50;;;;;;;5.37;74.08;100243.94;6193956;28;20084;-73
2023/11/19 09:59:42;;;;;;;9.60;5.30;;;;;;;5.56;74.07;100233.78;6198708;28;20133;-75
2023/11/19 10:02:46;;;;;;;10.82;5.72;;;;;;;5.59;74.42;100261.31;6187655;28;20134;-75
2023/11/19 10:05:46;;;;;;;8.98;4.90;;;;;;;5.72;73.76;100264.25;6165051;28;20058;-75
2023/11/19 10:08:48;;;;;;;11.15;4.97;;;;;;;5.77;74.32;100263.19;6169652;28;20047;-75
2023/11/19 10:11:49;;;;;;;6.95;3.72;;;;;;;5.86;73.23;100256.81;6150747;28;20134;-75
2023/11/19 10:14:51;;;;;;;7.47;4.65;;;;;;;5.77;73.30;100260.59;6159770;28;20416;-73
2023/11/19 10:17:51;;;;;;;6.53;4.07;;;;;;;6.11;72.94;100269.69;6174205;28;20141;-76
2023/11/19 10:20:54;;;;;;;9.20;4.40;;;;;;;6.19;73.08;100261.63;6175301;28;20129;-75
2023/11/19 10:23:59;;;;;;;;;;;;;;;6.12;72.03;100281.75;6197886;28;20105;-75
2023/11/19 10:27:03;;;;;;;7.63;4.43;;;;;;;6.11;71.30;100287.00;6197873;28;19972;-75
2023/11/19 10:30:05;;;;;;;7.78;4.53;;;;;;;6.03;73.22;100295.91;6198055;28;20785;-72
2023/11/19 10:33:14;;;;;;;6.22;4.15;;;;;;;5.79;73.04;100281.28;6196798;28;20489;-76
2023/11/19 10:36:17;;;;;;;6.03;3.70;;;;;;;5.80;73.12;100275.19;6197757;28;20509;-75
2023/11/19 10:39:18;;;;;;;;;;;;;;;5.77;73.50;100280.50;6197804;28;20575;-75
2023/11/19 10:42:21;;;;;;;5.75;3.92;;;;;;;6.11;74.05;100276.63;6198038;28;19922;-73
2023/11/19 10:45:26;;;;;;;10.55;4.50;;;;;;;6.05;73.14;100268.22;6196893;28;20058;-73
2023/11/19 10:48:27;;;;;;;10.00;4.85;;;;;;;6.15;72.15;100258.31;6197614;28;20088;-72
2023/11/19 10:51:31;;;;;;;8.50;4.25;;;;;;;6.08;72.58;100245.69;6196568;28;20501;-73
2023/11/19 10:54:37;;;;;;;8.13;5.10;;;;;;;6.06;73.05;100250.91;6196560;28;20390;-73
2023/11/19 10:57:43;;;;;;;9.55;5.00;;;;;;;6.03;74.02;100231.16;6197600;28;20061;-72
2023/11/19 11:00:52;;;;;;;10.10;5.47;;;;;;;6.12;73.96;100224.75;6197602;28;20058;-73
2023/11/19 11:03:56;;;;;;;8.50;5.07;;;;;;;5.84;74.31;100225.78;6196639;28;20110;-72
2023/11/19 11:06:58;;;;;;;6.63;4.50;;;;;;;6.00;74.49;100241.63;6197364;28;20050;-72
2023/11/19 11:10:06;;;;;;;8.27;4.07;;;;;;;5.54;74.38;100239.91;6197223;28;20413;-73
2023/11/19 11:13:07;;;;;;;10.73;4.50;;;;;;;5.56;75.13;100228.63;6198044;28;20053;-73
2023/11/19 11:16:08;;;;;;;9.85;5.47;;;;;;;5.72;75.80;100226.25;6197232;28;20050;-75
2023/11/19 11:19:11;;;;;;;11.10;5.30;;;;;;;5.72;75.99;100235.78;6196923;28;20046;-75
2023/11/19 11:22:15;;;;;;;;;;;;;;;5.74;75.31;100228.81;6197932;28;20046;-75
2023/11/19 11:25:48;;;;;;;10.80;5.65;;;;;;;5.67;75.47;100220.44;6197368;28;20320;-75
2023/11/19 11:29:01;;;;;;;12.63;5.72;;;;;;;5.84;75.28;100215.44;6185012;28;20088;-75
2023/11/19 11:32:20;;;;;;;;;;;;;;;5.80;75.06;100202.69;6196523;28;20063;-76
2023/11/19 11:35:40;;;;;;;6.70;3.80;;;;;;;5.67;76.41;100196.31;6148353;29;20289;-75
2023/11/19 11:38:41;;;;;;;8.32;3.88;;;;;;;5.53;76.06;100179.53;6177849;28;20129;-75
2023/11/19 11:41:42;;;;;;;7.15;3.50;;;;;;;5.57;75.64;100190.63;6191530;28;20049;-75
2023/11/19 11:45:04;;;;;;;8.48;4.68;;;;;;;5.69;76.34;100200.50;6173047;28;20051;-75
2023/11/19 11:48:14;;;;;;;8.90;4.65;;;;;;;5.52;76.94;100192.53;6171868;28;20062;-75
2023/11/19 11:51:15;;;;;;;8.80;4.93;;;;;;;5.68;77.34;100183.28;6177070;28;20058;-75
2023/11/19 11:54:19;;;;;;;18.08;7.65;;;;;;;5.62;76.83;100188.69;6176508;28;20101;-75
2023/11/19 11:57:21;;;;;;;8.93;4.60;;;;;;;5.64;77.71;100185.16;6177307;28;20051;-76
2023/11/19 12:00:26;;;;;;;6.18;4.20;;;;;;;5.49;77.63;100179.72;6177569;28;20055;-73
2023/11/19 12:03:30;;;;;;;8.27;4.20;;;;;;;5.58;77.24;100171.59;6177339;28;20125;-75
2023/11/19 12:06:32;;;;;;;7.82;4.25;;;;;;;5.56;77.17;100165.63;6173723;28;20121;-75
2023/11/19 12:09:33;;;;;;;13.02;5.82;;;;;;;5.41;77.92;100172.22;6201140;28;20047;-72
2023/11/19 12:12:35;;;;;;;11.63;5.93;;;;;;;5.46;78.52;100165.16;6161946;28;20106;-72
2023/11/19 12:16:12;;;;;;;14.07;8.00;;;;;;;5.51;78.15;100165.81;6192559;28;20054;-73
2023/11/19 12:19:13;;;;;;;8.60;4.93;;;;;;;5.29;78.23;100167.53;6149761;28;20532;-72
2023/11/19 12:22:15;;;;;;;11.10;5.28;;;;;;;5.44;78.14;100182.50;6175297;28;20351;-72
2023/11/19 12:25:17;;;;;;;7.63;4.85;;;;;;;5.60;78.38;100182.72;6176473;28;20509;-73
2023/11/19 12:28:18;;;;;;;9.20;4.20;;;;;;;5.41;77.85;100177.41;6207818;28;20406;-75
2023/11/19 12:31:19;;;;;;;7.22;3.97;;;;;;;5.41;78.69;100180.84;6175161;28;20628;-75
2023/11/19 12:34:23;;;;;;;7.75;3.90;;;;;;;5.61;78.32;100180.09;6176218;28;20615;-75
2023/11/19 12:37:24;;;;;;;8.52;4.05;;;;;;;5.47;78.48;100182.34;6175918;28;20055;-76
2023/11/19 12:40:25;;;;;;;8.13;4.75;;;;;;;5.45;79.23;100169.47;6174745;28;20065;-74
2023/11/19 12:43:26;;;;;;;26.27;13.07;;;;;;;5.57;79.33;100163.00;6176217;28;20047;-75
2023/11/19 12:46:30;;;;;;;9.65;4.95;;;;;;;5.28;78.43;100158.09;6176076;28;20112;-75
2023/11/19 12:49:31;;;;;;;8.27;5.18;;;;;;;5.58;79.29;100150.88;6215157;28;20141;-76
2023/11/19 12:52:34;;;;;;;12.02;6.75;;;;;;;5.54;79.44;100139.81;6200597;28;20061;-76
2023/11/19 12:55:35;;;;;;;11.70;6.38;;;;;;;5.38;80.38;100136.13;6200186;28;20065;-76
2023/11/19 12:58:39;;;;;;;11.05;5.15;;;;;;;5.27;81.17;100139.09;6198934;28;20421;-76
2023/11/19 13:01:53;;;;;;;14.85;6.22;;;;;;;5.37;81.04;100124.09;6200249;28;20133;-75
2023/11/19 13:04:53;;;;;;;19.17;5.68;;;;;;;5.43;81.23;100110.91;6199129;28;20050;-76
2023/11/19 13:08:13;;;;;;;8.90;5.03;;;;;;;5.53;81.39;100114.00;6198882;28;20050;-75
2023/11/19 13:11:14;;;;;;;5.50;3.78;;;;;;;5.36;81.99;100107.72;6198853;28;20051;-76
2023/11/19 13:14:15;;;;;;;6.23;3.30;;;;;;;5.31;81.29;100107.03;6200029;28;20046;-76
2023/11/19 13:17:16;;;;;;;6.55;4.40;;;;;;;5.39;81.51;100107.59;6199929;28;20133;-76
2023/11/19 13:20:21;;;;;;;6.43;4.10;;;;;;;5.30;81.29;100100.19;6198809;28;20055;-76
2023/11/19 13:23:21;;;;;;;10.27;4.75;;;;;;;5.41;82.11;100116.13;6199729;28;20050;-72
2023/11/19 13:26:23;;;;;;;7.55;4.55;;;;;;;5.59;82.06;100109.41;6198329;28;20057;-72
2023/11/19 13:29:24;;;;;;;9.77;4.60;;;;;;;5.43;82.61;100092.78;6199566;28;20523;-73
2023/11/19 13:32:25;;;;;;;9.10;4.60;;;;;;;5.41;83.42;100089.44;6198431;28;20064;-73
2023/11/19 13:35:27;;;;;;;9.00;5.38;;;;;;;5.37;83.53;100090.44;6199444;28;20062;-72
2023/11/19 13:38:28;;;;;;;5.82;3.92;;;;;;;5.19;84.33;100094.59;6156916;28;20049;-72
2023/11/19 13:41:29;;;;;;;8.38;5.25;;;;;;;5.29;84.45;100098.50;6158520;28;20412;-72
2023/11/19 13:44:30;;;;;;;8.30;4.65;;;;;;;5.21;84.21;100123.84;6174457;28;20043;-74
2023/11/19 13:47:31;;;;;;;9.10;4.40;;;;;;;5.24;84.50;100108.19;6161357;28;20150;-72
2023/11/19 13:50:34;;;;;;;9.82;5.45;;;;;;;5.53;84.33;100104.47;6156462;28;20101;-72
2023/11/19 13:53:35;;;;;;;9.60;4.88;;;;;;;5.45;84.68;100091.00;6155750;28;20482;-76
2023/11/19 13:56:36;;;;;;;6.95;4.35;;;;;;;5.21;84.99;100067.78;6164241;28;20054;-74
2023/11/19 13:59:41;;;;;;;11.77;6.13;;;;;;;5.16;85.14;100068.84;6196161;28;20485;-76
2023/11/19 14:02:42;;;;;;;9.38;4.03;;;;;;;4.92;85.73;100058.53;6198736;28;20054;-75
2023/11/19 14:05:47;;;;;;;6.43;4.43;;;;;;;5.03;86.17;100047.78;6199180;28;20061;-75
2023/11/19 14:08:50;;;;;;;12.73;6.28;;;;;;;4.82;87.08;100052.88;6197230;28;20050;-75
2023/11/19 14:11:51;;;;;;;9.38;5.22;;;;;;;4.97;86.84;100063.53;6168151;28;20403;-76
2023/11/19 14:14:52;;;;;;;8.38;5.07;;;;;;;5.01;87.51;100065.09;6160059;28;20057;-75
2023/11/19 14:17:53;;;;;;;11.52;6.18;;;;;;;5.04;87.82;100044.28;6174484;28;20043;-72